createdAt,value
2018-10-11T00:01:10.072Z,74.40
2018-10-11T00:03:39.955Z,74.60
2018-10-11T00:06:09.987Z,74.80
2018-10-11T00:08:39.892Z,74.90
2018-10-11T00:11:09.799Z,74.90
2018-10-11T00:13:39.763Z,75.10
2018-10-11T00:16:09.653Z,75.20
2018-10-11T00:18:39.471Z,75.30
2018-10-11T00:21:09.286Z,75.30
2018-10-11T00:23:39.063Z,75.50
2018-10-11T00:26:09.819Z,75.80
2018-10-11T00:28:39.800Z,75.70
2018-10-11T00:31:09.643Z,76.30
2018-10-11T00:33:39.455Z,76.00
2018-10-11T00:36:09.331Z,76.10
2018-10-11T00:38:39.131Z,76.20
2018-10-11T00:41:08.875Z,76.20
2018-10-11T00:43:38.839Z,76.10
2018-10-11T00:46:08.624Z,76.90
2018-10-11T00:48:38.890Z,76.00
2018-10-11T00:51:08.722Z,76.00
2018-10-11T00:53:38.496Z,76.00
2018-10-11T00:56:08.495Z,76.00
2018-10-11T00:58:38.480Z,76.00
2018-10-11T01:01:08.408Z,75.90
2018-10-11T01:03:38.334Z,75.90
2018-10-11T01:06:08.445Z,75.80
2018-10-11T01:08:38.560Z,76.00
2018-10-11T01:11:08.650Z,76.00
2018-10-11T01:13:38.696Z,76.10
2018-10-11T01:16:08.607Z,76.00
2018-10-11T01:18:38.393Z,76.10
2018-10-11T01:21:08.878Z,76.20
2018-10-11T01:23:38.922Z,76.20
2018-10-11T01:26:08.822Z,76.50
2018-10-11T01:28:38.672Z,76.50
2018-10-11T01:31:13.755Z,76.40
2018-10-11T01:33:43.668Z,76.40
2018-10-11T01:36:13.496Z,76.40
2018-10-11T01:38:43.506Z,76.50
2018-10-11T01:41:13.525Z,76.60
2018-10-11T01:43:43.558Z,76.80
2018-10-11T01:46:13.623Z,77.00
2018-10-11T01:48:43.620Z,77.00
2018-10-11T01:51:13.533Z,77.10
2018-10-11T01:53:43.418Z,77.10
2018-10-11T01:56:13.274Z,77.60
2018-10-11T01:58:43.223Z,77.40
2018-10-11T02:01:13.062Z,77.40
2018-10-11T02:03:42.899Z,77.20
2018-10-11T02:06:12.689Z,77.50
2018-10-11T02:08:42.606Z,77.60
2018-10-11T02:11:12.529Z,77.70
2018-10-11T02:13:42.536Z,77.70
2018-10-11T02:16:12.473Z,77.50
2018-10-11T02:18:42.256Z,77.80
2018-10-11T02:21:12.134Z,78.20
2018-10-11T02:23:42.191Z,78.20
2018-10-11T02:26:12.157Z,79.30
2018-10-11T02:28:42.109Z,78.60
2018-10-11T02:31:11.961Z,79.00
2018-10-11T02:33:41.780Z,79.30
2018-10-11T02:36:11.566Z,79.40
2018-10-11T02:38:41.372Z,79.30
2018-10-11T02:41:11.299Z,79.70
2018-10-11T02:43:41.159Z,79.50
2018-10-11T02:46:11.042Z,79.50
2018-10-11T02:48:40.962Z,79.80
2018-10-11T02:51:10.861Z,80.50
2018-10-11T02:53:40.737Z,79.90
2018-10-11T02:56:10.658Z,79.90
2018-10-11T02:58:56.980Z,79.70
2018-10-11T03:01:26.819Z,79.80
2018-10-11T03:04:03.418Z,79.90
2018-10-11T03:06:36.415Z,80.00
2018-10-11T03:09:07.883Z,79.60
2018-10-11T03:11:38.158Z,79.50
2018-10-11T03:14:08.441Z,80.00
2018-10-11T03:16:38.289Z,81.00
2018-10-11T03:19:08.275Z,80.50
2018-10-11T03:21:38.182Z,81.00
2018-10-11T03:24:08.127Z,81.40
2018-10-11T03:26:37.885Z,81.80
2018-10-11T03:29:07.746Z,81.90
2018-10-11T03:31:37.505Z,82.10
2018-10-11T03:34:07.432Z,82.30
2018-10-11T03:36:37.197Z,82.50
2018-10-11T03:39:08.329Z,82.40
2018-10-11T03:41:38.187Z,82.40
2018-10-11T03:44:08.047Z,82.30
2018-10-11T03:46:37.833Z,82.30
2018-10-11T03:49:08.167Z,82.10
2018-10-11T03:51:37.875Z,82.20
2018-10-11T03:54:07.899Z,82.10
2018-10-11T03:56:37.750Z,81.90
2018-10-11T03:59:08.344Z,81.60
2018-10-11T04:01:38.389Z,81.30
2018-10-11T04:04:08.379Z,81.20
2018-10-11T04:06:38.285Z,81.10
2018-10-11T04:09:08.584Z,81.00
2018-10-11T04:11:38.538Z,81.10
2018-10-11T04:14:08.431Z,81.10
2018-10-11T04:16:38.323Z,81.10
2018-10-11T04:19:08.423Z,81.10
2018-10-11T04:21:38.245Z,81.30
2018-10-11T04:24:08.050Z,81.10
2018-10-11T04:26:37.837Z,81.10
2018-10-11T04:29:07.711Z,81.10
2018-10-11T04:31:37.558Z,81.10
2018-10-11T04:34:07.483Z,81.80
2018-10-11T04:36:37.332Z,81.00
2018-10-11T04:39:09.848Z,81.00
2018-10-11T04:41:40.071Z,81.00
2018-10-11T04:44:09.932Z,80.90
2018-10-11T04:46:39.986Z,81.10
2018-10-11T04:49:10.120Z,80.80
2018-10-11T04:51:40.218Z,81.00
2018-10-11T04:54:10.095Z,81.00
2018-10-11T04:56:39.982Z,81.10
2018-10-11T04:59:09.830Z,81.10
2018-10-11T05:01:39.689Z,81.10
2018-10-11T05:04:09.739Z,81.20
2018-10-11T05:06:39.586Z,81.20
2018-10-11T05:09:09.724Z,81.30
2018-10-11T05:11:41.319Z,81.30
2018-10-11T05:14:12.868Z,81.20
2018-10-11T05:16:42.794Z,81.20
2018-10-11T05:19:12.732Z,80.90
2018-10-11T05:21:42.618Z,80.80
2018-10-11T05:24:12.725Z,80.70
2018-10-11T05:26:42.540Z,80.60
2018-10-11T05:29:12.420Z,80.40
2018-10-11T05:31:42.377Z,80.30
2018-10-11T05:34:12.624Z,80.20
2018-10-11T05:36:42.582Z,80.00
2018-10-11T05:39:12.729Z,79.80
2018-10-11T05:41:43.001Z,79.80
2018-10-11T05:44:13.024Z,79.50
2018-10-11T05:46:43.055Z,79.40
2018-10-11T05:49:13.160Z,79.30
2018-10-11T05:51:43.158Z,79.30
2018-10-11T05:54:13.088Z,79.20
2018-10-11T05:56:45.661Z,79.10
2018-10-11T05:59:15.570Z,79.10
2018-10-11T06:01:45.626Z,79.10
2018-10-11T06:04:16.093Z,79.20
2018-10-11T06:06:47.534Z,79.40
2018-10-11T06:09:17.787Z,79.40
2018-10-11T06:11:47.875Z,79.20
2018-10-11T06:14:17.942Z,79.30
2018-10-11T06:16:47.832Z,79.20
2018-10-11T06:19:17.730Z,79.20
2018-10-11T06:21:47.755Z,79.30
2018-10-11T06:24:17.755Z,79.40
2018-10-11T06:26:47.650Z,79.40
2018-10-11T06:29:17.714Z,80.30
2018-10-11T06:31:47.791Z,79.50
2018-10-11T06:34:17.965Z,79.80
2018-10-11T06:36:48.022Z,79.60
2018-10-11T06:39:18.115Z,79.50
2018-10-11T06:41:48.135Z,79.60
2018-10-11T06:44:18.108Z,79.50
2018-10-11T06:46:48.106Z,79.50
2018-10-11T06:49:18.098Z,79.50
2018-10-11T06:51:48.186Z,79.50
2018-10-11T06:54:18.208Z,79.60
2018-10-11T06:56:48.107Z,79.70
2018-10-11T06:59:18.000Z,79.70
2018-10-11T07:01:47.943Z,79.60
2018-10-11T07:04:17.954Z,79.40
2018-10-11T07:06:47.901Z,79.10
2018-10-11T07:09:17.723Z,78.90
2018-10-11T07:11:47.553Z,78.50
2018-10-11T07:14:17.389Z,78.10
2018-10-11T07:16:47.310Z,77.80
2018-10-11T07:19:17.241Z,77.40
2018-10-11T07:21:47.033Z,77.00
2018-10-11T07:24:16.990Z,76.60
2018-10-11T07:26:46.926Z,76.50
2018-10-11T07:29:16.830Z,75.70
2018-10-11T07:31:46.845Z,75.40
2018-10-11T07:34:16.738Z,75.00
2018-10-11T07:36:46.678Z,74.10
2018-10-11T07:39:16.597Z,73.30
2018-10-11T07:41:46.397Z,72.80
2018-10-11T07:44:16.230Z,72.60
2018-10-11T07:46:46.028Z,72.90
2018-10-11T07:49:15.929Z,72.70
2018-10-11T07:51:45.770Z,71.70
2018-10-11T07:54:15.598Z,71.30
2018-10-11T07:56:45.397Z,70.70
2018-10-11T07:59:15.341Z,70.20
2018-10-11T08:01:45.258Z,69.60
2018-10-11T08:04:15.074Z,68.90
2018-10-11T08:06:44.867Z,68.80
2018-10-11T08:09:14.658Z,68.80
2018-10-11T08:11:44.522Z,68.80
2018-10-11T08:14:14.712Z,68.80
2018-10-11T08:16:44.636Z,68.80
2018-10-11T08:19:14.589Z,68.60
2018-10-11T08:21:44.374Z,68.60
2018-10-11T08:24:14.129Z,68.50
2018-10-11T08:26:44.060Z,68.80
2018-10-11T08:29:13.801Z,68.40
2018-10-11T08:31:43.768Z,68.30
2018-10-11T08:34:13.535Z,68.20
2018-10-11T08:36:43.323Z,68.20
2018-10-11T08:39:13.977Z,68.20
2018-10-11T08:41:43.959Z,68.30
2018-10-11T08:44:14.305Z,68.10
2018-10-11T08:46:44.129Z,68.10
2018-10-11T08:49:14.091Z,68.00
2018-10-11T08:51:43.781Z,67.80
2018-10-11T08:54:18.866Z,67.20
2018-10-11T08:56:48.754Z,67.10
2018-10-11T08:59:18.806Z,66.90
2018-10-11T09:01:49.368Z,67.00
2018-10-11T09:04:19.276Z,66.80
2018-10-11T09:06:49.035Z,66.70
2018-10-11T09:09:18.914Z,66.60
2018-10-11T09:11:48.713Z,66.10
2018-10-11T09:14:18.691Z,65.60
2018-10-11T09:16:48.583Z,65.20
2018-10-11T09:19:18.449Z,64.90
2018-10-11T09:21:48.388Z,64.70
2018-10-11T09:24:18.241Z,64.00
2018-10-11T09:26:48.167Z,63.70
2018-10-11T09:29:18.066Z,63.70
2018-10-11T09:31:47.885Z,63.50
2018-10-11T09:34:17.845Z,63.00
2018-10-11T09:36:47.735Z,62.80
2018-10-11T09:39:17.788Z,62.20
2018-10-11T09:41:47.727Z,62.20
2018-10-11T09:44:17.641Z,62.10
2018-10-11T09:46:47.607Z,62.90
2018-10-11T09:49:17.555Z,61.50
2018-10-11T09:51:47.634Z,61.60
2018-10-11T09:54:17.462Z,61.40
2018-10-11T09:57:23.880Z,61.10
2018-10-11T09:59:53.775Z,61.30
2018-10-11T10:02:24.626Z,60.00
2018-10-11T10:05:09.002Z,59.70
2018-10-11T10:07:38.953Z,59.80
2018-10-11T10:10:09.183Z,59.10
2018-10-11T10:12:39.209Z,59.00
2018-10-11T10:15:09.250Z,58.30
2018-10-11T10:17:39.109Z,58.20
2018-10-11T10:20:09.138Z,58.00
2018-10-11T10:22:38.918Z,57.30
2018-10-11T10:25:09.010Z,56.80
2018-10-11T10:27:38.890Z,56.10
2018-10-11T10:30:13.878Z,56.00
2018-10-11T10:32:43.722Z,55.50
2018-10-11T10:35:13.563Z,54.90
2018-10-11T10:37:43.462Z,54.30
2018-10-11T10:40:13.307Z,54.50
2018-10-11T10:42:43.078Z,53.90
2018-10-11T10:45:12.921Z,53.90
2018-10-11T10:47:42.732Z,54.00
2018-10-11T10:50:12.728Z,54.30
2018-10-11T10:52:42.638Z,55.10
2018-10-11T10:55:12.450Z,54.10
2018-10-11T10:57:42.414Z,54.20
2018-10-11T11:00:12.362Z,53.90
2018-10-11T11:02:42.229Z,53.50
2018-10-11T11:05:12.034Z,53.10
2018-10-11T11:07:41.947Z,52.80
2018-10-11T11:10:11.762Z,53.00
2018-10-11T11:12:41.572Z,53.20
2018-10-11T11:15:11.458Z,53.10
2018-10-11T11:17:41.406Z,53.20
2018-10-11T11:20:11.250Z,53.30
2018-10-11T11:22:41.256Z,53.40
2018-10-11T11:25:11.199Z,53.90
2018-10-11T11:27:41.117Z,53.90
2018-10-11T11:30:11.081Z,54.20
2018-10-11T11:32:40.902Z,54.30
2018-10-11T11:35:10.730Z,54.50
2018-10-11T11:37:40.642Z,54.70
2018-10-11T11:40:10.747Z,55.10
2018-10-11T11:42:40.576Z,55.30
2018-10-11T11:45:10.563Z,55.50
2018-10-11T11:47:40.372Z,55.70
2018-10-11T11:50:10.588Z,55.80
2018-10-11T11:52:40.516Z,56.00
2018-10-11T11:55:10.312Z,56.00
2018-10-11T11:57:40.224Z,56.10
2018-10-11T12:00:10.194Z,56.40
2018-10-11T12:02:40.068Z,56.50
2018-10-11T12:05:10.291Z,56.10
2018-10-11T12:07:40.329Z,56.20
2018-10-11T12:10:10.303Z,56.10
2018-10-11T12:12:59.920Z,56.20
2018-10-11T12:15:30.722Z,56.30
2018-10-11T12:18:02.024Z,55.60
2018-10-11T12:20:33.089Z,55.00
2018-10-11T12:23:04.308Z,54.30
2018-10-11T12:25:34.430Z,52.80
2018-10-11T12:28:04.383Z,52.20
2018-10-11T12:30:34.278Z,51.60
2018-10-11T12:33:04.158Z,50.40
2018-10-11T12:35:34.115Z,50.10
2018-10-11T12:38:04.118Z,50.20
2018-10-11T12:40:34.090Z,50.10
2018-10-11T12:43:04.016Z,49.80
2018-10-11T12:45:34.007Z,49.50
2018-10-11T12:48:04.040Z,49.40
2018-10-11T12:50:34.103Z,49.30
2018-10-11T12:53:04.058Z,49.70
2018-10-11T12:55:34.097Z,49.90
2018-10-11T12:58:04.130Z,50.50
2018-10-11T13:00:34.013Z,50.90
2018-10-11T13:03:03.945Z,50.80
2018-10-11T13:05:33.763Z,50.90
2018-10-11T13:08:03.581Z,50.00
2018-10-11T13:10:33.448Z,49.60
2018-10-11T13:13:03.278Z,49.40
2018-10-11T13:15:33.147Z,49.10
2018-10-11T13:18:02.926Z,48.90
2018-10-11T13:20:32.933Z,48.20
2018-10-11T13:23:02.946Z,48.20
2018-10-11T13:25:32.786Z,47.70
2018-10-11T13:28:03.313Z,47.20
2018-10-11T13:30:33.248Z,46.80
2018-10-11T13:33:03.104Z,46.80
2018-10-11T13:35:32.964Z,46.90
2018-10-11T13:38:02.847Z,47.10
2018-10-11T13:40:32.743Z,46.40
2018-10-11T13:43:02.631Z,46.50
2018-10-11T13:45:32.508Z,46.30
2018-10-11T13:48:02.498Z,45.70
2018-10-11T13:50:32.382Z,45.70
2018-10-11T13:53:02.303Z,45.50
2018-10-11T13:55:32.325Z,45.40
2018-10-11T13:58:02.349Z,45.70
2018-10-11T14:00:32.257Z,45.30
2018-10-11T14:03:02.191Z,45.50
2018-10-11T14:05:32.077Z,45.30
2018-10-11T14:08:02.083Z,45.10
2018-10-11T14:10:32.162Z,45.10
2018-10-11T14:13:02.081Z,45.00
2018-10-11T14:15:31.991Z,44.70
2018-10-11T14:18:07.630Z,45.00
2018-10-11T14:20:31.949Z,45.00
2018-10-11T14:23:01.901Z,45.30
2018-10-11T14:25:31.820Z,45.70
2018-10-11T14:28:01.746Z,45.70
2018-10-11T14:30:31.648Z,45.90
2018-10-11T14:33:01.762Z,46.20
2018-10-11T14:35:31.669Z,45.80
2018-10-11T14:38:01.637Z,45.60
2018-10-11T14:40:31.802Z,45.50
2018-10-11T14:43:01.812Z,45.40
2018-10-11T14:45:31.641Z,45.80
2018-10-11T14:48:01.502Z,46.00
2018-10-11T14:50:31.428Z,46.40
2018-10-11T14:53:02.204Z,46.70
2018-10-11T14:55:33.161Z,47.00
2018-10-11T14:58:04.119Z,47.30
2018-10-11T15:00:35.450Z,47.50
2018-10-11T15:03:05.465Z,47.80
2018-10-11T15:05:35.362Z,48.00
2018-10-11T15:08:06.011Z,48.20
2018-10-11T15:10:36.093Z,48.40
2018-10-11T15:13:06.182Z,48.60
2018-10-11T15:15:36.575Z,48.80
2018-10-11T15:18:06.886Z,49.10
2018-10-11T15:20:37.023Z,49.40
2018-10-11T15:23:07.006Z,49.70
2018-10-11T15:25:36.869Z,49.80
2018-10-11T15:28:06.916Z,49.90
2018-10-11T15:30:36.860Z,50.00
2018-10-11T15:33:06.860Z,49.50
2018-10-11T15:35:36.798Z,49.40
2018-10-11T15:38:07.555Z,49.20
2018-10-11T15:40:42.317Z,48.90
2018-10-11T15:43:12.358Z,48.80
2018-10-11T15:45:42.347Z,48.60
2018-10-11T15:48:12.353Z,48.70
2018-10-11T15:50:45.549Z,48.50
2018-10-11T15:53:15.483Z,48.10
2018-10-11T15:55:46.275Z,48.00
2018-10-11T15:58:20.246Z,48.10
2018-10-11T16:03:22.016Z,48.20
2018-10-11T16:05:51.879Z,48.10
2018-10-11T16:08:21.746Z,48.10
2018-10-11T16:10:51.940Z,48.10
2018-10-11T16:13:21.949Z,48.40
2018-10-11T16:15:51.946Z,48.30
2018-10-11T16:18:21.830Z,48.30
2018-10-11T16:20:51.722Z,48.40
2018-10-11T16:23:21.526Z,48.40
2018-10-11T16:25:51.868Z,48.40
2018-10-11T16:28:21.812Z,48.60
2018-10-11T16:30:51.898Z,48.70
2018-10-11T16:33:21.901Z,49.00
2018-10-11T16:35:51.784Z,49.30
2018-10-11T16:38:21.534Z,49.50
2018-10-11T16:40:51.385Z,49.90
2018-10-11T16:43:21.193Z,50.10
2018-10-11T16:45:50.989Z,50.50
2018-10-11T16:48:20.924Z,50.90
2018-10-11T16:50:50.867Z,51.20
2018-10-11T16:53:20.677Z,51.50
2018-10-11T16:55:50.522Z,51.80
2018-10-11T16:58:20.380Z,52.30
2018-10-11T17:00:50.705Z,52.80
2018-10-11T17:03:21.179Z,53.20
2018-10-11T17:05:51.032Z,53.50
2018-10-11T17:08:20.878Z,53.70
2018-10-11T17:10:50.687Z,54.00
2018-10-11T17:13:20.561Z,54.40
2018-10-11T17:15:50.393Z,54.70
2018-10-11T17:18:20.383Z,55.00
2018-10-11T17:20:50.257Z,55.10
2018-10-11T17:23:19.972Z,55.40
2018-10-11T17:25:49.773Z,55.50
2018-10-11T17:28:19.683Z,55.70
2018-10-11T17:30:49.519Z,55.90
2018-10-11T17:33:19.529Z,56.10
2018-10-11T17:35:49.363Z,56.30
2018-10-11T17:38:19.241Z,56.40
2018-10-11T17:40:49.037Z,56.60
2018-10-11T17:43:18.905Z,56.80
2018-10-11T17:45:48.761Z,57.20
2018-10-11T17:48:18.693Z,57.20
2018-10-11T17:50:48.620Z,57.50
2018-10-11T17:53:18.661Z,57.90
2018-10-11T17:55:48.643Z,58.00
2018-10-11T17:58:18.538Z,58.00
2018-10-11T18:00:48.414Z,58.10
2018-10-11T18:03:18.704Z,58.30
2018-10-11T18:05:48.906Z,58.50
2018-10-11T18:08:18.850Z,58.50
2018-10-11T18:10:48.710Z,58.70
2018-10-11T18:13:18.679Z,58.90
2018-10-11T18:15:48.555Z,59.10
2018-10-11T18:18:18.459Z,59.20
2018-10-11T18:20:48.290Z,59.40
2018-10-11T18:23:18.099Z,59.50
2018-10-11T18:25:48.064Z,59.60
2018-10-11T18:28:17.939Z,59.80
2018-10-11T18:30:47.802Z,59.80
2018-10-11T18:33:17.622Z,59.90
2018-10-11T18:35:47.609Z,59.90
2018-10-11T18:38:17.270Z,60.10
2018-10-11T18:40:47.146Z,60.10
2018-10-11T18:43:17.007Z,60.30
2018-10-11T18:45:46.894Z,60.60
2018-10-11T18:48:16.649Z,60.90
2018-10-11T18:50:46.462Z,60.60
2018-10-11T18:53:16.324Z,60.70
2018-10-11T18:55:46.094Z,60.70
2018-10-11T18:58:15.924Z,60.90
2018-10-11T19:00:45.898Z,60.80
2018-10-11T19:03:15.893Z,61.00
2018-10-11T19:05:46.036Z,61.20
2018-10-11T19:08:15.995Z,61.30
2018-10-11T19:10:45.835Z,61.40
2018-10-11T19:13:15.698Z,61.70
2018-10-11T19:15:45.587Z,61.70
2018-10-11T19:18:15.538Z,61.70
2018-10-11T19:20:45.624Z,61.90
2018-10-11T19:23:15.474Z,62.00
2018-10-11T19:25:45.447Z,62.10
2018-10-11T19:28:15.328Z,62.50
2018-10-11T19:30:45.288Z,62.50
2018-10-11T19:33:15.187Z,62.40
2018-10-11T19:35:45.059Z,62.50
2018-10-11T19:38:14.941Z,62.60
2018-10-11T19:40:44.776Z,62.70
2018-10-11T19:43:14.619Z,62.90
2018-10-11T19:45:44.855Z,63.20
2018-10-11T19:48:14.860Z,63.00
2018-10-11T19:50:44.659Z,63.40
2018-10-11T19:53:14.500Z,63.30
2018-10-11T19:55:44.283Z,63.30
2018-10-11T19:58:14.091Z,63.30
2018-10-11T20:00:44.227Z,63.40
2018-10-11T20:03:14.144Z,63.50
2018-10-11T20:05:43.952Z,63.60
2018-10-11T20:08:13.847Z,63.60
2018-10-11T20:10:43.548Z,63.50
2018-10-11T20:13:13.431Z,63.70
2018-10-11T20:15:43.261Z,63.80
2018-10-11T20:18:13.399Z,63.80
2018-10-11T20:20:43.297Z,63.80
2018-10-11T20:23:13.258Z,63.90
2018-10-11T20:25:43.151Z,64.00
2018-10-11T20:28:13.139Z,64.00
2018-10-11T20:30:43.083Z,64.00
2018-10-11T20:33:12.971Z,64.00
2018-10-11T20:35:42.755Z,64.00
2018-10-11T20:38:12.614Z,64.20
2018-10-11T20:40:42.412Z,64.30
2018-10-11T20:43:12.314Z,64.30
2018-10-11T20:45:42.217Z,64.30
2018-10-11T20:48:11.973Z,64.60
2018-10-11T20:50:41.990Z,64.90
2018-10-11T20:53:11.747Z,65.00
2018-10-11T20:55:41.678Z,65.20
2018-10-11T20:58:11.611Z,65.20
2018-10-11T21:00:41.488Z,65.60
2018-10-11T21:03:11.383Z,65.70
2018-10-11T21:05:41.229Z,65.70
2018-10-11T21:08:11.092Z,66.10
2018-10-11T21:10:40.993Z,66.30
2018-10-11T21:13:10.974Z,66.50
2018-10-11T21:15:40.752Z,66.50
2018-10-11T21:18:10.552Z,66.90
2018-10-11T21:20:40.475Z,67.00
2018-10-11T21:23:10.356Z,67.00
2018-10-11T21:25:40.239Z,67.00
2018-10-11T21:28:10.137Z,67.10
2018-10-11T21:30:39.985Z,67.30
2018-10-11T21:33:09.850Z,67.20
2018-10-11T21:35:39.787Z,67.50
2018-10-11T21:38:09.630Z,67.80
2018-10-11T21:40:39.421Z,67.80
2018-10-11T21:43:09.296Z,67.90
2018-10-11T21:45:39.115Z,68.40
2018-10-11T21:48:08.891Z,68.10
2018-10-11T21:50:38.680Z,68.60
2018-10-11T21:53:08.643Z,68.40
2018-10-11T21:55:38.485Z,68.40
2018-10-11T21:58:08.383Z,68.80
2018-10-11T22:00:43.251Z,68.70
2018-10-11T22:03:13.042Z,69.10
2018-10-11T22:05:42.950Z,69.20
2018-10-11T22:08:13.021Z,69.20
2018-10-11T22:10:42.907Z,69.40
2018-10-11T22:13:12.759Z,69.40
2018-10-11T22:15:42.704Z,69.40
2018-10-11T22:18:12.449Z,69.60
2018-10-11T22:20:42.322Z,69.60
2018-10-11T22:23:12.199Z,69.90
2018-10-11T22:25:42.059Z,70.00
2018-10-11T22:28:11.841Z,69.80
2018-10-11T22:30:41.647Z,70.00
2018-10-11T22:33:11.399Z,70.00
2018-10-11T22:35:41.287Z,70.10
2018-10-11T22:38:11.134Z,70.30
2018-10-11T22:40:40.953Z,70.50
2018-10-11T22:43:10.894Z,70.70
2018-10-11T22:45:40.857Z,70.60
2018-10-11T22:48:10.905Z,70.70
2018-10-11T22:50:40.864Z,70.80
2018-10-11T22:53:10.751Z,70.70
2018-10-11T22:55:40.610Z,70.90
2018-10-11T22:58:10.634Z,71.10
2018-10-11T23:00:40.484Z,71.10
2018-10-11T23:03:10.390Z,71.40
2018-10-11T23:05:40.262Z,71.50
2018-10-11T23:08:10.118Z,71.50
2018-10-11T23:10:39.954Z,71.60
2018-10-11T23:13:09.784Z,71.70
2018-10-11T23:15:39.596Z,71.60
2018-10-11T23:18:09.412Z,71.60
2018-10-11T23:20:39.244Z,71.50
2018-10-11T23:23:09.123Z,71.50
2018-10-11T23:25:39.134Z,71.80
2018-10-11T23:28:08.989Z,71.70
2018-10-11T23:30:38.892Z,71.80
2018-10-11T23:33:08.802Z,71.90
2018-10-11T23:35:38.677Z,72.00
2018-10-11T23:38:08.543Z,72.10
2018-10-11T23:40:38.331Z,71.90
2018-10-11T23:43:08.691Z,71.90
2018-10-11T23:45:38.485Z,71.80
2018-10-11T23:48:08.309Z,72.10
2018-10-11T23:50:38.149Z,72.00
2018-10-11T23:53:08.369Z,72.80
2018-10-11T23:55:38.274Z,72.30
2018-10-11T23:58:08.077Z,72.30
